Airfield :
LOGIN :

Register | Disclaimer

   EN    FR    IT 

 










Legend :    VFR   Marginal VFR   IFR   Intensive IFR   Very Intensive IFR
Visi :
Ceiling :
>= 8 km
>= 3000ft
5 to 8 km
1000 to 3000 ft
1500m to 5 km
500 to 1000 ft
800 to 1500m
200 to 500 ft
< 800m
< 200 ft
Symbols :   Thunderstorms  Fog  Heavy snow  Heavy precipitations  Wind > 20 kt
SIGMETs :     Misc.  Thunderstorms  Icing  Turbulence  Mountain Waves  Volcanic Ashes







- Airport Elevation : 20 ft


EBFN - Koksijde

CURRENT METAR :
  • 220655Z 01016KT 9999 FEW012 SCT020 BKN030 13/07 Q1032 WHT WHT TEMPO GRN

EXPIRED METARs :
  • 220625Z 36017KT 9999 FEW012 SCT020 BKN030 13/08 Q1032 WHT WHT TEMPO GRN
  • 220555Z 36015KT 9999 FEW012 SCT020 BKN030 13/09 Q1031 WHT WHT TEMPO GRN
  • 220533Z 01016KT 9999 FEW012 BKN020 BKN045 14/10 Q1031 WHT WHT TEMPO GRN
  • 220455Z 01014KT 8000 SCT008 BKN013 13/11 Q1030 GRN GRN TEMPO YLO
  • 220425Z 36016KT 6000 -DZ SCT008 BKN013 13/11 Q1030 GRN GRN TEMPO YLO

TAF TAF EBFN
Valid from the 22 at 07:00 until the 22 at 16:00 UTC


220541Z 2207/2216 01015KT 9999 SCT015 BKN020
TEMPO 2207/2209 4000 -RADZ SCT010 BKN015
PROB30
TEMPO 2207/2208 3000 -DZRA SCT005 BKN012
TEMPO 2212/2216 BKN025
No reported NOTAMs for that airfield.



MET'MAP, your aeronautical weather chart ! - Copyright ORBIFLY December 2007 - Disclaimer

ORBIFLY MET'MAP TEAM :

Programming & Development : Alexandra Zaïnal
Concept & Development : Baudouin d'Aumeries
Co-Development & Prog : Marc-Olivier Méhu
Technical & hardware support : Manuel Goepfert

Contact : metmap@orbifly.com




SOURCES & CREDITS :

   NOAA